Time;durP1;ratioP1;P1;durP2;ratioP2;P2;SDS_P1;SDS_P2;PMS_P1;PMS_P2;Temp;Humidity;BMP_temperature;BMP_pressure;BME280_temperature;BME280_humidity;BME280_pressure;Samples;Min_cycle;Max_cycle;Signal;HPM_P1;HPM_P2
2021/03/21 00:00:36;;;;;;;6.38;3.72;;;;;;;;;;5049058;28;20032;-85
2021/03/21 00:03:02;;;;;;;6.15;3.95;;;;;;;;;;5065550;28;20040;-85
2021/03/21 00:05:28;;;;;;;6.22;3.58;;;;;;;;;;5051343;28;20464;-86
2021/03/21 00:07:59;;;;;;;10.88;3.92;;;;;;;;;;5049854;28;20025;-85
2021/03/21 00:10:26;;;;;;;5.70;4.00;;;;;;;;;;5051331;28;20037;-86
2021/03/21 00:12:52;;;;;;;9.05;4.15;;;;;;;;;;5051087;28;20025;-86
2021/03/21 00:15:18;;;;;;;10.55;5.20;;;;;;;;;;5058717;28;20470;-86
2021/03/21 00:17:44;;;;;;;6.25;4.13;;;;;;;;;;5053205;28;20028;-85
2021/03/21 00:20:11;;;;;;;6.88;4.60;;;;;;;;;;5050456;28;20086;-86
2021/03/21 00:22:37;;;;;;;8.82;4.40;;;;;;;;;;5056518;28;20033;-86
2021/03/21 00:25:05;;;;;;;6.32;4.53;;;;;;;;;;5048885;28;20025;-87
2021/03/21 00:27:31;;;;;;;10.65;4.72;;;;;;;;;;5051861;28;20103;-86
2021/03/21 00:29:57;;;;;;;9.45;5.05;;;;;;;;;;5066632;28;20063;-86
2021/03/21 00:32:24;;;;;;;9.15;4.82;;;;;;;;;;5057101;28;20039;-87
2021/03/21 00:34:50;;;;;;;7.97;4.07;;;;;;;;;;5054719;28;20084;-86
2021/03/21 00:37:16;;;;;;;9.02;4.93;;;;;;;;;;5069099;28;20560;-86
2021/03/21 00:39:42;;;;;;;10.40;5.28;;;;;;;;;;5054458;28;20112;-86
2021/03/21 00:42:08;;;;;;;7.75;5.00;;;;;;;;;;5055134;28;20116;-86
2021/03/21 00:44:34;;;;;;;9.77;5.07;;;;;;;;;;5054320;28;20029;-86
2021/03/21 00:47:00;;;;;;;10.55;5.45;;;;;;;;;;5052589;28;20657;-86
2021/03/21 00:49:26;;;;;;;13.05;5.40;;;;;;;;;;5055268;28;20052;-86
2021/03/21 00:51:52;;;;;;;12.70;6.13;;;;;;;;;;5069852;28;20052;-87
2021/03/21 00:54:18;;;;;;;10.38;5.68;;;;;;;;;;5075586;28;20028;-85
2021/03/21 00:56:44;;;;;;;7.93;5.28;;;;;;;;;;5073219;28;20481;-85
2021/03/21 00:59:10;;;;;;;11.02;5.45;;;;;;;;;;5056559;28;20384;-86
2021/03/21 01:01:37;;;;;;;11.40;6.15;;;;;;;;;;5054399;28;20509;-86
2021/03/21 01:04:03;;;;;;;9.50;5.82;;;;;;;;;;5061740;28;20384;-85
2021/03/21 01:06:29;;;;;;;14.68;6.82;;;;;;;;;;5054629;28;20021;-85
2021/03/21 01:09:01;;;;;;;10.93;6.35;;;;;;;;;;5054955;28;20092;-85
2021/03/21 01:11:32;;;;;;;12.23;6.45;;;;;;;;;;5068708;28;20017;-86
2021/03/21 01:13:58;;;;;;;10.02;6.35;;;;;;;;;;5051048;28;20029;-85
2021/03/21 01:16:32;;;;;;;11.63;6.78;;;;;;;;;;5055471;28;20111;-86
2021/03/21 01:19:01;;;;;;;11.25;6.75;;;;;;;;;;5054860;28;20028;-86
2021/03/21 01:21:29;;;;;;;9.90;6.20;;;;;;;;;;5058652;28;20090;-85
2021/03/21 01:23:55;;;;;;;11.27;6.53;;;;;;;;;;5054345;28;20115;-85
2021/03/21 01:26:22;;;;;;;13.40;6.90;;;;;;;;;;5055264;28;20029;-85
2021/03/21 01:28:48;;;;;;;14.38;6.63;;;;;;;;;;5064810;28;20036;-85
2021/03/21 01:31:15;;;;;;;12.75;7.50;;;;;;;;;;5055288;28;20056;-87
2021/03/21 01:33:42;;;;;;;14.77;7.78;;;;;;;;;;5054194;28;20055;-86
2021/03/21 01:36:10;;;;;;;14.82;7.55;;;;;;;;;;5054138;28;20040;-87
2021/03/21 01:38:36;;;;;;;13.75;7.63;;;;;;;;;;5054553;28;20112;-86
2021/03/21 01:41:04;;;;;;;14.50;8.95;;;;;;;;;;5060060;28;20439;-87
2021/03/21 01:43:31;;;;;;;15.30;9.23;;;;;;;;;;5054846;28;20384;-87
2021/03/21 01:45:57;;;;;;;16.27;8.93;;;;;;;;;;5054710;28;20025;-86
2021/03/21 01:48:33;;;;;;;15.43;9.82;;;;;;;;;;5055013;28;20628;-86
2021/03/21 01:51:01;;;;;;;15.95;9.65;;;;;;;;;;5054321;28;20033;-86
2021/03/21 01:53:29;;;;;;;19.63;9.93;;;;;;;;;;5054105;28;20456;-85
2021/03/21 01:55:55;;;;;;;16.75;10.05;;;;;;;;;;5054364;28;20036;-85
2021/03/21 01:58:23;;;;;;;17.90;10.02;;;;;;;;;;5055536;28;20056;-85
2021/03/21 02:00:49;;;;;;;16.75;10.52;;;;;;;;;;5053997;28;20017;-86
2021/03/21 02:03:15;;;;;;;19.88;11.05;;;;;;;;;;5054253;28;20389;-85
2021/03/21 02:05:42;;;;;;;16.92;10.63;;;;;;;;;;5070753;28;20439;-86
2021/03/21 02:08:11;;;;;;;18.42;11.07;;;;;;;;;;5056179;28;20063;-86
2021/03/21 02:10:46;;;;;;;17.45;11.35;;;;;;;;;;5054986;28;20056;-86
2021/03/21 02:13:16;;;;;;;20.05;11.57;;;;;;;;;;5054566;28;20481;-85
2021/03/21 02:15:54;;;;;;;21.55;12.02;;;;;;;;;;5070633;28;20822;-85
2021/03/21 02:18:20;;;;;;;17.60;11.38;;;;;;;;;;5040986;28;20503;-86
2021/03/21 02:21:05;;;;;;;18.17;11.55;;;;;;;;;;5069654;28;20017;-86
2021/03/21 02:23:44;;;;;;;20.63;12.00;;;;;;;;;;5053355;28;20045;-86
2021/03/21 02:26:23;;;;;;;20.52;11.93;;;;;;;;;;5054262;28;20035;-86
2021/03/21 02:29:04;;;;;;;19.15;11.90;;;;;;;;;;5069675;28;20037;-86
2021/03/21 02:31:34;;;;;;;20.90;12.00;;;;;;;;;;5070118;28;20033;-86
2021/03/21 02:34:03;;;;;;;19.15;12.65;;;;;;;;;;5055005;28;20021;-86
2021/03/21 02:36:41;;;;;;;19.13;12.15;;;;;;;;;;5054763;28;20128;-86
2021/03/21 02:39:10;;;;;;;20.50;12.15;;;;;;;;;;5046564;28;20059;-85
2021/03/21 02:41:47;;;;;;;18.80;12.13;;;;;;;;;;5046728;28;20105;-86
2021/03/21 02:44:16;;;;;;;23.40;11.75;;;;;;;;;;5040620;28;20423;-86
2021/03/21 02:46:46;;;;;;;21.13;11.90;;;;;;;;;;5052376;28;20044;-86
2021/03/21 02:49:17;;;;;;;19.80;12.50;;;;;;;;;;5041687;28;20059;-87
2021/03/21 02:51:45;;;;;;;20.05;12.68;;;;;;;;;;5048566;28;20098;-86
2021/03/21 02:54:20;;;;;;;20.13;12.48;;;;;;;;;;5067012;28;20033;-86
2021/03/21 02:56:49;;;;;;;20.38;11.98;;;;;;;;;;5050804;28;20021;-86
2021/03/21 02:59:17;;;;;;;20.52;11.88;;;;;;;;;;5068626;28;20033;-86
2021/03/21 03:01:46;;;;;;;21.02;12.68;;;;;;;;;;5046063;28;20020;-86
2021/03/21 03:04:29;;;;;;;19.08;11.35;;;;;;;;;;5050882;28;20391;-86
2021/03/21 03:07:01;;;;;;;22.23;11.88;;;;;;;;;;5049727;28;20041;-86
2021/03/21 03:09:43;;;;;;;21.85;11.95;;;;;;;;;;5069650;28;20419;-87
2021/03/21 03:12:11;;;;;;;19.23;11.80;;;;;;;;;;5049330;28;20033;-87
2021/03/21 03:14:39;;;;;;;20.33;12.38;;;;;;;;;;5042609;28;20126;-87
2021/03/21 03:17:22;;;;;;;17.75;11.32;;;;;;;;;;5049132;28;20036;-88
2021/03/21 03:19:54;;;;;;;17.30;10.50;;;;;;;;;;5049515;28;20029;-87
2021/03/21 03:22:27;;;;;;;17.27;11.43;;;;;;;;;;5049077;28;20037;-87
2021/03/21 03:25:12;;;;;;;13.75;8.45;;;;;;;;;;5042243;28;20430;-87
2021/03/21 03:27:56;;;;;;;19.60;12.20;;;;;;;;;;5049527;28;20377;-87
2021/03/21 03:30:24;;;;;;;17.50;11.52;;;;;;;;;;5055940;28;20553;-87
2021/03/21 03:32:50;;;;;;;22.75;11.35;;;;;;;;;;5051755;28;20052;-87
2021/03/21 03:35:18;;;;;;;19.10;11.30;;;;;;;;;;5052221;28;20060;-88
2021/03/21 03:37:45;;;;;;;19.20;11.02;;;;;;;;;;5052197;28;20029;-87
2021/03/21 03:40:11;;;;;;;17.90;10.77;;;;;;;;;;5055042;28;20021;-87
2021/03/21 03:42:47;;;;;;;18.42;9.80;;;;;;;;;;5052687;28;20527;-88
2021/03/21 03:45:34;;;;;;;19.13;9.85;;;;;;;;;;5049444;28;20033;-87
2021/03/21 03:48:18;;;;;;;16.13;9.23;;;;;;;;;;5047550;28;20082;-87
2021/03/21 03:50:52;;;;;;;16.20;10.00;;;;;;;;;;5049309;28;20025;-87
2021/03/21 03:53:25;;;;;;;13.05;8.90;;;;;;;;;;5052984;28;20025;-87
2021/03/21 03:55:55;;;;;;;13.45;8.35;;;;;;;;;;5044915;28;20026;-87
2021/03/21 03:58:27;;;;;;;11.10;7.85;;;;;;;;;;5047698;28;20030;-87
2021/03/21 04:01:02;;;;;;;11.23;8.05;;;;;;;;;;5050078;28;20532;-87
2021/03/21 04:03:37;;;;;;;11.90;7.25;;;;;;;;;;5047991;28;20079;-88
2021/03/21 04:06:09;;;;;;;15.05;7.90;;;;;;;;;;5057530;28;20037;-87
2021/03/21 04:08:40;;;;;;;10.18;7.25;;;;;;;;;;5045477;28;20036;-87
2021/03/21 04:11:11;;;;;;;13.02;7.72;;;;;;;;;;5045657;28;20051;-88
2021/03/21 04:13:40;;;;;;;9.30;6.68;;;;;;;;;;5055337;28;20120;-87
2021/03/21 04:16:07;;;;;;;13.13;7.35;;;;;;;;;;5056989;28;20032;-87
2021/03/21 04:18:48;;;;;;;9.80;6.80;;;;;;;;;;5056173;28;20025;-87
2021/03/21 04:21:29;;;;;;;11.05;6.40;;;;;;;;;;5053816;28;20123;-87
2021/03/21 04:24:11;;;;;;;12.63;7.80;;;;;;;;;;5046535;28;20148;-87
2021/03/21 04:26:39;;;;;;;12.05;7.47;;;;;;;;;;5070956;28;20025;-87
2021/03/21 04:29:09;;;;;;;9.32;7.05;;;;;;;;;;5057251;28;20544;-87
2021/03/21 04:31:36;;;;;;;10.70;6.82;;;;;;;;;;5055821;28;20020;-88
2021/03/21 04:34:04;;;;;;;11.70;7.47;;;;;;;;;;5055909;28;20035;-89
2021/03/21 04:36:32;;;;;;;11.52;7.43;;;;;;;;;;5056754;28;20070;-88
2021/03/21 04:39:01;;;;;;;10.85;6.68;;;;;;;;;;5052514;28;20112;-89
2021/03/21 04:41:29;;;;;;;11.02;6.90;;;;;;;;;;5049678;28;20140;-90
2021/03/21 04:44:05;;;;;;;11.07;6.03;;;;;;;;;;5055310;28;20037;-90
2021/03/21 04:46:51;;;;;;;8.90;5.60;;;;;;;;;;5056840;28;20029;-91
2021/03/21 04:49:18;;;;;;;9.23;5.95;;;;;;;;;;5062693;28;20037;-88
2021/03/21 04:51:45;;;;;;;9.20;5.15;;;;;;;;;;5074070;28;20089;-89
2021/03/21 04:54:20;;;;;;;9.82;6.10;;;;;;;;;;5061071;28;20029;-89
2021/03/21 04:56:51;;;;;;;7.78;5.18;;;;;;;;;;5052043;28;20033;-89
2021/03/21 04:59:28;;;;;;;8.57;5.30;;;;;;;;;;5047540;28;20116;-89
2021/03/21 05:02:11;;;;;;;7.82;3.97;;;;;;;;;;5053706;28;20028;-89
2021/03/21 05:04:42;;;;;;;7.82;4.43;;;;;;;;;;5053536;28;20420;-89
2021/03/21 05:07:20;;;;;;;5.63;4.05;;;;;;;;;;5053376;28;20040;-89
2021/03/21 05:09:48;;;;;;;6.53;3.80;;;;;;;;;;5051084;28;20036;-89
2021/03/21 05:12:23;;;;;;;4.97;3.33;;;;;;;;;;5052587;28;20036;-89
2021/03/21 05:14:55;;;;;;;4.80;3.60;;;;;;;;;;5049585;28;20076;-88
2021/03/21 05:17:31;;;;;;;5.20;3.72;;;;;;;;;;5053294;28;20116;-89
2021/03/21 05:20:07;;;;;;;4.15;3.15;;;;;;;;;;5048843;28;20120;-89
2021/03/21 05:22:36;;;;;;;5.13;3.35;;;;;;;;;;5052915;28;20080;-89
2021/03/21 05:25:06;;;;;;;5.65;3.45;;;;;;;;;;5053951;28;20021;-89
2021/03/21 05:27:39;;;;;;;6.07;3.22;;;;;;;;;;5052524;28;20183;-89
2021/03/21 05:30:16;;;;;;;4.22;2.92;;;;;;;;;;5055946;28;20503;-89
2021/03/21 05:32:42;;;;;;;5.78;3.20;;;;;;;;;;5048091;28;20061;-89
2021/03/21 05:35:09;;;;;;;4.28;3.08;;;;;;;;;;5044439;28;20029;-89
2021/03/21 05:37:53;;;;;;;5.75;3.38;;;;;;;;;;5044570;28;20025;-90
2021/03/21 05:40:19;;;;;;;4.10;2.90;;;;;;;;;;5049129;28;20061;-90
2021/03/21 05:43:04;;;;;;;6.40;4.03;;;;;;;;;;5052528;28;20028;-89
2021/03/21 05:45:36;;;;;;;4.93;3.35;;;;;;;;;;5048716;28;20032;-90
2021/03/21 05:48:02;;;;;;;5.10;3.33;;;;;;;;;;5048632;28;20033;-90
2021/03/21 05:50:47;;;;;;;4.80;3.60;;;;;;;;;;5052869;28;20082;-90
2021/03/21 05:53:28;;;;;;;7.45;3.53;;;;;;;;;;5054816;28;20064;-90
2021/03/21 05:56:02;;;;;;;3.38;2.45;;;;;;;;;;5047839;28;20030;-89
2021/03/21 05:58:57;;;;;;;5.32;3.10;;;;;;;;;;5052066;28;20083;-89
2021/03/21 06:02:02;;;;;;;4.80;3.03;;;;;;;;;;5016928;28;20124;-89
2021/03/21 06:05:03;;;;;;;3.75;2.83;;;;;;;;;;4989916;28;20483;-89
2021/03/21 06:07:52;;;;;;;4.10;3.17;;;;;;;;;;4949164;29;20031;-89
2021/03/21 06:10:30;;;;;;;4.68;2.92;;;;;;;;;;5039747;28;20073;-89
2021/03/21 06:13:14;;;;;;;4.15;2.83;;;;;;;;;;5042767;28;20522;-89
2021/03/21 06:15:58;;;;;;;4.40;3.20;;;;;;;;;;5052221;28;20025;-90
2021/03/21 06:18:32;;;;;;;5.00;3.20;;;;;;;;;;5046513;28;20036;-89
2021/03/21 06:21:03;;;;;;;5.57;3.40;;;;;;;;;;5044513;28;20505;-89
2021/03/21 06:23:43;;;;;;;5.55;3.53;;;;;;;;;;5048337;28;20405;-89
2021/03/21 06:26:16;;;;;;;3.33;2.75;;;;;;;;;;5051034;28;20028;-90
2021/03/21 06:28:42;;;;;;;3.28;2.33;;;;;;;;;;5057949;28;20039;-89
2021/03/21 06:31:18;;;;;;;4.43;2.97;;;;;;;;;;5052169;28;20048;-89
2021/03/21 06:33:44;;;;;;;4.55;3.20;;;;;;;;;;5050168;28;20385;-89
2021/03/21 06:36:12;;;;;;;6.00;3.30;;;;;;;;;;5051268;28;20029;-90
2021/03/21 06:38:56;;;;;;;4.72;3.13;;;;;;;;;;5051374;28;20027;-90
2021/03/21 06:41:45;;;;;;;5.47;3.65;;;;;;;;;;5061374;28;20033;-90
2021/03/21 06:44:26;;;;;;;9.52;3.70;;;;;;;;;;5051128;28;20037;-90
2021/03/21 06:46:52;;;;;;;4.47;2.95;;;;;;;;;;5051308;28;20348;-89
2021/03/21 06:49:29;;;;;;;5.40;3.50;;;;;;;;;;5052378;28;20032;-90
2021/03/21 06:52:14;;;;;;;4.80;2.90;;;;;;;;;;5052527;28;20056;-89
2021/03/21 06:54:49;;;;;;;5.95;3.05;;;;;;;;;;5050865;28;20115;-90
2021/03/21 06:57:41;;;;;;;5.00;3.45;;;;;;;;;;5054762;28;20131;-89
2021/03/21 07:00:26;;;;;;;5.57;3.80;;;;;;;;;;5052705;28;20384;-90
2021/03/21 07:02:52;;;;;;;3.78;2.88;;;;;;;;;;5044644;28;20075;-90
2021/03/21 07:05:37;;;;;;;5.72;3.00;;;;;;;;;;5052692;28;20021;-89
2021/03/21 07:08:28;;;;;;;4.03;2.80;;;;;;;;;;5050117;28;20033;-89
2021/03/21 07:11:02;;;;;;;4.15;2.83;;;;;;;;;;5043707;28;20044;-89
2021/03/21 07:13:46;;;;;;;3.55;2.67;;;;;;;;;;5037479;28;20016;-90
2021/03/21 07:16:31;;;;;;;3.33;2.25;;;;;;;;;;5048901;28;20127;-89
2021/03/21 07:19:00;;;;;;;3.80;2.28;;;;;;;;;;5046267;28;20107;-89
2021/03/21 07:21:51;;;;;;;3.55;2.25;;;;;;;;;;5050477;28;20476;-89
2021/03/21 07:24:19;;;;;;;2.90;2.15;;;;;;;;;;5050355;28;20110;-89
2021/03/21 07:26:54;;;;;;;2.65;2.08;;;;;;;;;;5049586;28;20033;-89
2021/03/21 07:29:39;;;;;;;4.40;2.38;;;;;;;;;;5050311;28;20041;-90
2021/03/21 07:32:24;;;;;;;2.97;2.13;;;;;;;;;;5046551;28;20028;-89
2021/03/21 07:35:03;;;;;;;3.05;2.05;;;;;;;;;;5043071;28;20028;-90
2021/03/21 07:37:36;;;;;;;2.60;2.03;;;;;;;;;;5049551;28;20120;-90
2021/03/21 07:40:02;;;;;;;2.47;1.90;;;;;;;;;;5048186;28;20036;-89
2021/03/21 07:42:53;;;;;;;2.30;1.65;;;;;;;;;;5052656;28;20033;-88
2021/03/21 07:45:26;;;;;;;2.25;1.70;;;;;;;;;;5048945;28;20025;-90
2021/03/21 07:48:07;;;;;;;1.90;1.35;;;;;;;;;;5051158;28;20028;-90
2021/03/21 07:50:36;;;;;;;1.45;1.17;;;;;;;;;;5046369;28;20029;-89
2021/03/21 07:53:02;;;;;;;2.15;1.45;;;;;;;;;;5057106;28;20028;-90
2021/03/21 07:55:47;;;;;;;2.25;1.40;;;;;;;;;;5041960;28;20044;-89
2021/03/21 07:58:23;;;;;;;4.30;1.30;;;;;;;;;;5043518;28;20083;-89
2021/03/21 08:00:49;;;;;;;3.83;1.30;;;;;;;;;;5050069;28;20096;-89
2021/03/21 08:03:18;;;;;;;1.90;1.30;;;;;;;;;;5049648;28;20124;-90
2021/03/21 08:05:44;;;;;;;1.65;1.15;;;;;;;;;;5042631;28;20120;-89
2021/03/21 08:08:16;;;;;;;2.00;1.25;;;;;;;;;;5049500;28;20116;-89
2021/03/21 08:10:42;;;;;;;3.28;1.52;;;;;;;;;;5048146;28;20366;-89
2021/03/21 08:13:16;;;;;;;3.60;1.25;;;;;;;;;;5044969;28;20540;-89
2021/03/21 08:15:42;;;;;;;3.13;1.60;;;;;;;;;;5047775;28;20030;-89
2021/03/21 08:18:11;;;;;;;2.38;1.35;;;;;;;;;;5038893;28;20033;-90
2021/03/21 08:20:41;;;;;;;3.17;1.42;;;;;;;;;;5053373;28;20021;-89
2021/03/21 08:23:13;;;;;;;3.80;1.50;;;;;;;;;;5051392;28;20048;-90
2021/03/21 08:25:40;;;;;;;2.65;1.60;;;;;;;;;;5047802;28;20033;-91
2021/03/21 08:28:06;;;;;;;3.40;1.38;;;;;;;;;;5048189;28;20036;-90
2021/03/21 08:30:52;;;;;;;5.25;1.60;;;;;;;;;;5042885;28;20033;-91
2021/03/21 08:33:31;;;;;;;3.38;1.42;;;;;;;;;;5038617;28;20124;-91
2021/03/21 08:36:17;;;;;;;4.90;1.55;;;;;;;;;;5044056;28;20448;-91
2021/03/21 08:38:55;;;;;;;4.95;1.60;;;;;;;;;;5051333;28;20100;-90
2021/03/21 08:41:21;;;;;;;5.32;2.03;;;;;;;;;;5051281;28;20021;-91
2021/03/21 08:43:56;;;;;;;11.45;1.90;;;;;;;;;;5053592;28;20052;-90
2021/03/21 08:46:23;;;;;;;6.95;1.80;;;;;;;;;;5065331;28;20029;-92
2021/03/21 08:49:00;;;;;;;5.32;1.75;;;;;;;;;;5071139;28;20035;-90
2021/03/21 08:51:30;;;;;;;6.43;1.63;;;;;;;;;;5063387;28;20039;-90
2021/03/21 08:54:14;;;;;;;7.32;2.75;;;;;;;;;;5049007;28;20029;-89
2021/03/21 08:56:41;;;;;;;5.90;2.20;;;;;;;;;;5049492;28;20029;-90
2021/03/21 08:59:08;;;;;;;9.02;1.83;;;;;;;;;;5053321;28;20039;-90
2021/03/21 09:01:36;;;;;;;7.75;1.48;;;;;;;;;;5053072;28;20021;-89
2021/03/21 09:04:18;;;;;;;7.53;2.00;;;;;;;;;;5052729;28;20039;-90
2021/03/21 09:06:45;;;;;;;7.90;1.70;;;;;;;;;;5052867;28;20507;-89
2021/03/21 09:09:22;;;;;;;6.97;1.73;;;;;;;;;;5052996;28;20029;-89
2021/03/21 09:11:50;;;;;;;6.68;1.95;;;;;;;;;;5055463;28;20029;-90
2021/03/21 09:14:21;;;;;;;10.20;1.50;;;;;;;;;;5052600;28;20464;-89
2021/03/21 09:16:56;;;;;;;6.25;1.55;;;;;;;;;;5050647;28;20025;-88
2021/03/21 09:19:33;;;;;;;9.48;2.17;;;;;;;;;;5051178;28;20364;-89
2021/03/21 09:22:00;;;;;;;10.90;2.35;;;;;;;;;;5051127;28;20045;-89
2021/03/21 09:24:28;;;;;;;14.77;2.50;;;;;;;;;;5053826;28;20020;-89
2021/03/21 09:27:13;;;;;;;9.85;2.42;;;;;;;;;;5053646;28;20040;-89
2021/03/21 09:29:39;;;;;;;14.38;2.75;;;;;;;;;;5051501;28;20044;-89
2021/03/21 09:32:15;;;;;;;16.45;2.22;;;;;;;;;;5057264;28;20025;-89
2021/03/21 09:34:48;;;;;;;15.52;2.90;;;;;;;;;;5054220;28;20032;-88
2021/03/21 09:37:18;;;;;;;21.27;3.05;;;;;;;;;;5052757;28;20025;-87
2021/03/21 09:39:55;;;;;;;16.95;3.13;;;;;;;;;;5054339;28;20033;-88
2021/03/21 09:42:21;;;;;;;15.98;2.88;;;;;;;;;;5047893;28;20028;-88
2021/03/21 09:44:48;;;;;;;18.25;2.60;;;;;;;;;;5043740;28;20369;-88
2021/03/21 09:47:31;;;;;;;19.38;4.07;;;;;;;;;;5047730;28;20033;-88
2021/03/21 09:50:11;;;;;;;17.35;2.67;;;;;;;;;;5060670;28;20036;-88
2021/03/21 09:52:42;;;;;;;11.95;3.40;;;;;;;;;;5059835;28;20033;-88
2021/03/21 09:55:19;;;;;;;14.15;2.58;;;;;;;;;;5057010;28;20032;-89
2021/03/21 09:57:48;;;;;;;17.45;3.28;;;;;;;;;;5050782;28;20040;-89
2021/03/21 10:00:19;;;;;;;18.98;3.60;;;;;;;;;;5052010;28;20035;-89
2021/03/21 10:02:46;;;;;;;14.25;3.45;;;;;;;;;;5062546;28;20021;-89
2021/03/21 10:05:22;;;;;;;16.00;3.15;;;;;;;;;;5052163;28;20020;-89
2021/03/21 10:07:48;;;;;;;14.00;3.15;;;;;;;;;;5044043;28;20021;-89
2021/03/21 10:10:44;;;;;;;20.52;3.28;;;;;;;;;;5050023;28;20021;-89
2021/03/21 10:13:10;;;;;;;16.73;3.47;;;;;;;;;;4971941;28;20043;-88
2021/03/21 10:15:55;;;;;;;11.63;2.63;;;;;;;;;;5051860;28;20021;-89
2021/03/21 10:18:54;;;;;;;16.40;3.00;;;;;;;;;;5050782;28;20037;-89
2021/03/21 10:21:23;;;;;;;9.70;2.25;;;;;;;;;;5015514;28;20362;-88
2021/03/21 10:23:49;;;;;;;10.95;3.25;;;;;;;;;;5051627;28;20082;-88
2021/03/21 10:26:16;;;;;;;15.77;3.53;;;;;;;;;;5052331;28;20060;-88
2021/03/21 10:28:45;;;;;;;16.45;3.28;;;;;;;;;;5051857;28;20442;-89
2021/03/21 10:31:23;;;;;;;13.23;3.20;;;;;;;;;;5051755;28;20017;-89
2021/03/21 10:33:50;;;;;;;11.20;2.90;;;;;;;;;;5044587;28;20021;-88
2021/03/21 10:36:35;;;;;;;15.93;3.53;;;;;;;;;;5049496;28;20048;-88
2021/03/21 10:39:01;;;;;;;12.55;2.95;;;;;;;;;;5051244;28;20040;-89
2021/03/21 10:41:46;;;;;;;15.27;2.63;;;;;;;;;;5051025;28;20021;-89
2021/03/21 10:44:12;;;;;;;14.45;3.00;;;;;;;;;;5052077;28;20031;-88
2021/03/21 10:46:49;;;;;;;19.15;3.47;;;;;;;;;;5052688;28;20033;-88
2021/03/21 10:49:34;;;;;;;17.33;2.53;;;;;;;;;;5052624;28;20060;-88
2021/03/21 10:52:26;;;;;;;13.38;2.65;;;;;;;;;;5049634;28;20123;-89
2021/03/21 10:55:11;;;;;;;20.63;3.42;;;;;;;;;;5024989;28;20030;-88
2021/03/21 10:57:43;;;;;;;18.88;3.40;;;;;;;;;;5059038;28;20025;-88
2021/03/21 11:00:21;;;;;;;17.33;2.95;;;;;;;;;;5046167;28;20473;-88
2021/03/21 11:02:51;;;;;;;14.38;2.95;;;;;;;;;;5056904;28;20108;-89
2021/03/21 11:05:31;;;;;;;17.48;3.67;;;;;;;;;;5051491;28;20029;-88
2021/03/21 11:08:05;;;;;;;13.48;3.72;;;;;;;;;;5053221;28;20086;-89
2021/03/21 11:10:33;;;;;;;19.80;6.80;;;;;;;;;;5062618;28;20495;-89
2021/03/21 11:12:59;;;;;;;20.67;4.20;;;;;;;;;;5052099;28;21130;-89
2021/03/21 11:15:25;;;;;;;18.67;3.60;;;;;;;;;;5045886;28;20041;-89
2021/03/21 11:17:52;;;;;;;14.50;3.47;;;;;;;;;;5042192;28;20083;-89
2021/03/21 11:20:28;;;;;;;25.05;3.78;;;;;;;;;;5047531;28;20091;-89
2021/03/21 11:22:56;;;;;;;17.55;3.78;;;;;;;;;;5048392;28;20044;-89
2021/03/21 11:25:36;;;;;;;22.10;3.55;;;;;;;;;;5042247;28;20032;-89
2021/03/21 11:28:03;;;;;;;16.88;3.40;;;;;;;;;;5050667;28;20457;-89
2021/03/21 11:30:31;;;;;;;17.33;4.65;;;;;;;;;;5054989;28;20037;-89
2021/03/21 11:33:36;;;;;;;18.60;4.10;;;;;;;;;;5058073;28;20151;-89
2021/03/21 11:36:19;;;;;;;30.50;6.25;;;;;;;;;;4990195;28;20120;-88
2021/03/21 11:38:46;;;;;;;23.60;4.30;;;;;;;;;;5006909;28;20022;-89
2021/03/21 11:41:25;;;;;;;21.33;4.30;;;;;;;;;;5024870;28;20040;-89
2021/03/21 11:43:51;;;;;;;22.60;4.72;;;;;;;;;;5049835;28;20070;-89
2021/03/21 11:46:29;;;;;;;26.52;5.30;;;;;;;;;;5046713;28;20032;-89
2021/03/21 11:48:56;;;;;;;27.15;4.90;;;;;;;;;;5046647;28;20029;-89
2021/03/21 11:51:23;;;;;;;23.65;5.10;;;;;;;;;;5039995;28;20021;-89
2021/03/21 11:53:49;;;;;;;27.30;4.82;;;;;;;;;;5047704;28;20096;-89
2021/03/21 11:56:40;;;;;;;29.95;5.60;;;;;;;;;;5048270;28;20080;-89
2021/03/21 11:59:15;;;;;;;27.95;5.22;;;;;;;;;;5043063;28;20061;-88
2021/03/21 12:02:07;;;;;;;25.42;4.65;;;;;;;;;;5066869;28;20025;-88
2021/03/21 12:04:40;;;;;;;19.88;4.80;;;;;;;;;;5062602;28;20505;-89
2021/03/21 12:07:13;;;;;;;20.05;4.40;;;;;;;;;;5046111;28;20067;-89
2021/03/21 12:09:48;;;;;;;48.35;21.67;;;;;;;;;;5047119;28;20124;-89
2021/03/21 12:12:29;;;;;;;17.23;4.30;;;;;;;;;;5048657;28;20071;-90
2021/03/21 12:14:57;;;;;;;16.50;3.80;;;;;;;;;;5043505;28;20492;-90
2021/03/21 12:17:23;;;;;;;15.70;3.88;;;;;;;;;;5047720;28;20024;-89
2021/03/21 12:19:49;;;;;;;17.10;3.03;;;;;;;;;;5048696;28;20037;-89
2021/03/21 12:22:21;;;;;;;12.82;3.00;;;;;;;;;;5050754;28;20048;-90
2021/03/21 12:24:55;;;;;;;13.30;3.63;;;;;;;;;;5050852;28;20087;-89
2021/03/21 12:27:20;;;;;;;;;;;;;;;;;;5053290;28;20524;-89
2021/03/21 12:29:47;;;;;;;13.57;3.25;;;;;;;;;;5051745;28;20232;-89
2021/03/21 12:32:19;;;;;;;12.80;2.78;;;;;;;;;;5050318;28;20243;-90
2021/03/21 12:34:46;;;;;;;15.30;3.38;;;;;;;;;;5053077;28;20021;-89
2021/03/21 12:37:15;;;;;;;14.75;2.90;;;;;;;;;;5048890;28;20022;-89
2021/03/21 12:39:45;;;;;;;10.57;2.70;;;;;;;;;;5049274;28;20031;-89
2021/03/21 12:42:26;;;;;;;13.23;2.58;;;;;;;;;;5047380;28;20036;-89
2021/03/21 12:45:11;;;;;;;7.10;2.22;;;;;;;;;;5051214;28;20021;-90
2021/03/21 12:47:42;;;;;;;9.77;2.88;;;;;;;;;;5052458;28;20052;-89
2021/03/21 12:50:37;;;;;;;10.50;2.75;;;;;;;;;;5051116;28;20112;-89
2021/03/21 12:53:05;;;;;;;9.20;2.60;;;;;;;;;;5022489;28;20488;-89
2021/03/21 12:55:31;;;;;;;15.15;2.50;;;;;;;;;;5047294;28;20021;-89
2021/03/21 12:57:57;;;;;;;9.60;2.90;;;;;;;;;;5051145;28;20487;-89
2021/03/21 13:00:27;;;;;;;12.00;2.70;;;;;;;;;;5050619;28;20032;-90
2021/03/21 13:02:55;;;;;;;12.40;2.90;;;;;;;;;;5052683;28;20036;-89
2021/03/21 13:05:22;;;;;;;11.35;2.83;;;;;;;;;;5052358;28;20036;-89
2021/03/21 13:07:48;;;;;;;16.63;2.50;;;;;;;;;;5052936;28;20465;-89
2021/03/21 13:10:15;;;;;;;13.98;3.33;;;;;;;;;;5052168;28;20082;-89
2021/03/21 13:12:41;;;;;;;9.80;2.60;;;;;;;;;;5049662;28;20034;-89
2021/03/21 13:15:11;;;;;;;10.95;2.50;;;;;;;;;;5049142;28;20048;-89
2021/03/21 13:17:37;;;;;;;8.32;2.13;;;;;;;;;;5051422;28;20090;-90
2021/03/21 13:20:08;;;;;;;13.85;3.10;;;;;;;;;;5051840;28;20037;-88
2021/03/21 13:22:34;;;;;;;10.68;2.53;;;;;;;;;;5056564;28;20137;-90
2021/03/21 13:25:00;;;;;;;8.93;2.17;;;;;;;;;;5049600;28;20021;-90
2021/03/21 13:27:47;;;;;;;6.60;1.83;;;;;;;;;;5051501;28;20083;-90
2021/03/21 13:30:16;;;;;;;7.55;1.90;;;;;;;;;;5049308;28;20029;-90
2021/03/21 13:32:45;;;;;;;8.25;1.60;;;;;;;;;;5050249;28;20114;-90
2021/03/21 13:35:25;;;;;;;9.27;2.45;;;;;;;;;;5051923;28;20393;-90
2021/03/21 13:37:55;;;;;;;13.88;2.45;;;;;;;;;;5050802;28;20040;-90
2021/03/21 13:40:23;;;;;;;5.72;1.92;;;;;;;;;;5053834;28;20468;-90
2021/03/21 13:42:51;;;;;;;8.63;1.83;;;;;;;;;;5053738;28;20117;-90
2021/03/21 13:45:20;;;;;;;8.38;2.03;;;;;;;;;;5053359;28;20037;-90
2021/03/21 13:47:46;;;;;;;9.70;1.85;;;;;;;;;;5060688;28;20039;-90
2021/03/21 13:50:12;;;;;;;9.90;1.55;;;;;;;;;;5052893;28;20065;-90
2021/03/21 13:52:38;;;;;;;14.60;2.05;;;;;;;;;;5049812;28;20067;-90
2021/03/21 13:55:05;;;;;;;8.38;1.83;;;;;;;;;;5050813;28;20052;-91
2021/03/21 13:57:31;;;;;;;6.28;1.45;;;;;;;;;;5054667;28;20431;-90
2021/03/21 13:59:58;;;;;;;7.78;1.90;;;;;;;;;;5056466;28;20025;-93
2021/03/21 14:02:25;;;;;;;8.50;1.65;;;;;;;;;;5053972;28;20117;-92
2021/03/21 14:05:00;;;;;;;10.07;2.00;;;;;;;;;;5060747;28;20025;-92
2021/03/21 14:07:26;;;;;;;6.40;1.70;;;;;;;;;;5053486;28;20033;-92
2021/03/21 14:09:52;;;;;;;4.65;1.35;;;;;;;;;;5048077;28;20029;-92
2021/03/21 14:12:18;;;;;;;6.63;1.42;;;;;;;;;;5058904;28;20041;-92
2021/03/21 14:14:44;;;;;;;5.50;1.20;;;;;;;;;;5055444;28;20384;-92
2021/03/21 14:17:11;;;;;;;5.43;1.27;;;;;;;;;;5050315;28;20032;-92
2021/03/21 14:19:37;;;;;;;5.35;1.20;;;;;;;;;;5055703;28;20029;-92
2021/03/21 14:22:03;;;;;;;3.75;1.10;;;;;;;;;;5054665;28;20083;-93
2021/03/21 14:24:29;;;;;;;6.72;1.20;;;;;;;;;;5047453;28;20044;-92
2021/03/21 14:26:55;;;;;;;3.28;0.75;;;;;;;;;;5052405;28;20430;-91
2021/03/21 14:29:21;;;;;;;3.42;0.95;;;;;;;;;;5046083;28;20051;-92
2021/03/21 14:31:47;;;;;;;6.78;1.33;;;;;;;;;;5053518;28;20025;-91
2021/03/21 14:34:13;;;;;;;3.83;1.10;;;;;;;;;;5051764;28;20099;-90
2021/03/21 14:36:39;;;;;;;2.75;0.93;;;;;;;;;;5054701;28;20427;-93
2021/03/21 14:39:05;;;;;;;6.93;1.10;;;;;;;;;;5048512;28;20095;-91
2021/03/21 14:41:31;;;;;;;3.72;0.75;;;;;;;;;;5056373;28;20088;-90
2021/03/21 14:43:58;;;;;;;2.80;0.70;;;;;;;;;;5043554;28;20037;-90
2021/03/21 14:46:24;;;;;;;2.63;0.65;;;;;;;;;;5042486;28;20063;-90
2021/03/21 14:48:50;;;;;;;3.63;0.88;;;;;;;;;;5049137;28;20380;-90
2021/03/21 14:51:16;;;;;;;2.78;0.60;;;;;;;;;;5050682;28;20044;-90
2021/03/21 14:53:42;;;;;;;1.30;0.32;;;;;;;;;;5045698;28;20025;-91
2021/03/21 14:56:08;;;;;;;2.90;0.80;;;;;;;;;;5045173;28;20496;-92
2021/03/21 14:58:34;;;;;;;2.05;0.60;;;;;;;;;;5056470;28;20032;-92
2021/03/21 15:01:04;;;;;;;1.33;0.45;;;;;;;;;;5055132;28;20542;-92
2021/03/21 15:03:30;;;;;;;19.75;0.88;;;;;;;;;;5047249;28;20032;-91
2021/03/21 15:05:57;;;;;;;1.25;0.40;;;;;;;;;;5052544;28;20407;-90